createdAt,value
2023-05-08T00:01:33.382Z,99465.52
2023-05-08T00:04:00.623Z,99468.55
2023-05-08T00:06:30.750Z,99472.17
2023-05-08T00:08:57.757Z,99474.10
2023-05-08T00:11:24.867Z,99474.10
2023-05-08T00:13:51.787Z,99473.96
2023-05-08T00:16:18.814Z,99475.27
2023-05-08T00:18:45.786Z,99476.18
2023-05-08T00:21:12.612Z,99471.61
2023-05-08T00:23:39.454Z,99469.45
2023-05-08T00:26:06.431Z,99472.80
2023-05-08T00:28:33.675Z,99472.42
2023-05-08T00:31:02.445Z,99471.61
2023-05-08T00:33:29.377Z,99468.83
2023-05-08T00:36:04.001Z,99469.52
2023-05-08T00:38:32.770Z,99474.83
2023-05-08T00:41:01.679Z,99470.09
2023-05-08T00:43:29.556Z,99465.88
2023-05-08T00:45:59.513Z,99472.00
2023-05-08T00:48:30.904Z,99472.09
2023-05-08T00:50:58.661Z,99469.19
2023-05-08T00:53:26.910Z,99472.04
2023-05-08T00:55:54.174Z,99471.85
2023-05-08T00:58:22.991Z,99471.58
2023-05-08T01:00:52.678Z,99474.38
2023-05-08T01:03:19.932Z,99478.81
2023-05-08T01:05:47.012Z,99480.30
2023-05-08T01:08:14.021Z,99481.73
2023-05-08T01:10:45.402Z,99485.66
2023-05-08T01:13:23.789Z,99488.16
2023-05-08T01:16:16.283Z,99489.77
2023-05-08T01:18:51.287Z,99488.69
2023-05-08T01:21:24.335Z,99490.63
2023-05-08T01:24:16.389Z,99489.41
2023-05-08T01:27:08.386Z,99492.52
2023-05-08T01:29:59.919Z,99492.09
2023-05-08T01:32:37.528Z,99493.77
2023-05-08T01:35:19.197Z,99497.41
2023-05-08T01:38:10.977Z,99497.20
2023-05-08T01:40:45.199Z,99500.19
2023-05-08T01:43:18.863Z,99495.56
2023-05-08T01:45:48.912Z,99493.09
2023-05-08T01:48:35.436Z,99497.67
2023-05-08T01:51:14.574Z,99492.96
2023-05-08T01:53:45.723Z,99495.50
2023-05-08T01:56:17.352Z,99492.46
2023-05-08T01:58:44.956Z,99489.19
2023-05-08T02:01:14.950Z,99487.98
2023-05-08T02:03:45.070Z,99493.85
2023-05-08T02:06:14.736Z,99489.90
2023-05-08T02:08:43.536Z,99494.39
2023-05-08T02:11:12.914Z,99495.61
2023-05-08T02:13:41.552Z,99498.34
2023-05-08T02:16:10.882Z,99498.27
2023-05-08T02:18:40.732Z,99496.37
2023-05-08T02:21:10.114Z,99494.73
2023-05-08T02:23:38.035Z,99491.92
2023-05-08T02:26:05.461Z,99490.73
2023-05-08T02:28:33.746Z,99496.09
2023-05-08T02:31:02.022Z,99493.05
2023-05-08T02:33:30.489Z,99495.28
2023-05-08T02:35:58.860Z,99497.58
2023-05-08T02:38:26.728Z,99499.25
2023-05-08T02:40:58.584Z,99495.60
2023-05-08T02:43:25.864Z,99500.38
2023-05-08T02:45:57.621Z,99500.92
2023-05-08T02:48:42.665Z,99503.55
2023-05-08T02:51:40.343Z,99505.20
2023-05-08T02:54:38.311Z,99510.48
2023-05-08T02:57:22.120Z,99508.25
2023-05-08T03:00:10.344Z,99503.64
2023-05-08T03:02:48.619Z,99503.41
2023-05-08T03:05:24.634Z,99505.84
2023-05-08T03:07:54.596Z,99510.17
2023-05-08T03:10:27.233Z,99513.52
2023-05-08T03:12:56.421Z,99512.81
2023-05-08T03:15:31.556Z,99512.48
2023-05-08T03:18:04.245Z,99517.66
2023-05-08T03:20:35.823Z,99518.39
2023-05-08T03:23:04.854Z,99520.77
2023-05-08T03:25:34.408Z,99518.36
2023-05-08T03:28:05.011Z,99516.98
2023-05-08T03:30:33.036Z,99526.41
2023-05-08T03:33:02.136Z,99527.54
2023-05-08T03:35:29.217Z,99526.50
2023-05-08T03:37:56.362Z,99528.42
2023-05-08T03:40:23.628Z,99525.10
2023-05-08T03:42:51.443Z,99522.23
2023-05-08T03:45:19.893Z,99521.22
2023-05-08T03:47:47.257Z,99520.40
2023-05-08T03:50:14.613Z,99518.95
2023-05-08T03:52:42.646Z,99524.14
2023-05-08T03:55:10.054Z,99523.45
2023-05-08T03:58:16.972Z,99525.46
2023-05-08T04:01:07.048Z,99523.42
2023-05-08T04:04:11.216Z,99527.70
2023-05-08T04:06:50.911Z,99531.40
2023-05-08T04:09:44.570Z,99534.29
2023-05-08T04:12:20.382Z,99537.39
2023-05-08T04:14:56.873Z,99540.11
2023-05-08T04:17:40.063Z,99540.73
2023-05-08T04:20:12.528Z,99544.15
2023-05-08T04:22:41.460Z,99544.27
2023-05-08T04:25:10.009Z,99550.20
2023-05-08T04:27:37.618Z,99549.61
2023-05-08T04:30:05.472Z,99557.55
2023-05-08T04:32:35.281Z,99560.05
2023-05-08T04:35:03.405Z,99562.39
2023-05-08T04:37:32.178Z,99564.19
2023-05-08T04:39:59.912Z,99572.16
2023-05-08T04:42:27.702Z,99571.48
2023-05-08T04:44:55.185Z,99575.39
2023-05-08T04:47:23.115Z,99580.48
2023-05-08T04:49:51.528Z,99582.36
2023-05-08T04:52:18.337Z,99582.80
2023-05-08T04:54:45.155Z,99583.36
2023-05-08T04:57:11.992Z,99582.73
2023-05-08T04:59:39.043Z,99586.98
2023-05-08T05:02:08.591Z,99587.11
2023-05-08T05:04:36.830Z,99585.65
2023-05-08T05:07:04.691Z,99585.11
2023-05-08T05:09:31.843Z,99588.96
2023-05-08T05:11:58.686Z,99589.56
2023-05-08T05:14:25.501Z,99591.21
2023-05-08T05:16:53.047Z,99590.70
2023-05-08T05:19:20.105Z,99596.55
2023-05-08T05:21:47.190Z,99600.66
2023-05-08T05:24:14.112Z,99599.23
2023-05-08T05:26:41.881Z,99600.16
2023-05-08T05:29:08.795Z,99603.36
2023-05-08T05:31:35.985Z,99606.83
2023-05-08T05:34:03.440Z,99611.05
2023-05-08T05:36:31.009Z,99606.21
2023-05-08T05:38:57.993Z,99615.38
2023-05-08T05:41:24.955Z,99618.67
2023-05-08T05:43:51.780Z,99614.30
2023-05-08T05:46:19.048Z,99619.41
2023-05-08T05:48:46.315Z,99624.58
2023-05-08T05:51:13.439Z,99622.26
2023-05-08T05:53:40.278Z,99627.10
2023-05-08T05:56:11.846Z,99634.69
2023-05-08T05:58:40.706Z,99636.25
2023-05-08T06:01:07.547Z,99634.70
2023-05-08T06:03:34.448Z,99637.21
2023-05-08T06:06:01.560Z,99640.20
2023-05-08T06:08:28.480Z,99646.79
2023-05-08T06:10:55.320Z,99647.31
2023-05-08T06:13:22.419Z,99644.73
2023-05-08T06:15:51.194Z,99652.30
2023-05-08T06:18:18.234Z,99656.61
2023-05-08T06:20:45.241Z,99653.75
2023-05-08T06:23:12.081Z,99661.77
2023-05-08T06:25:39.446Z,99655.45
2023-05-08T06:28:08.334Z,99657.36
2023-05-08T06:30:35.306Z,99658.69
2023-05-08T06:33:02.507Z,99660.16
2023-05-08T06:35:29.485Z,99662.08
2023-05-08T06:37:56.410Z,99667.56
2023-05-08T06:40:24.154Z,99665.44
2023-05-08T06:42:51.042Z,99667.16
2023-05-08T06:45:18.198Z,99673.18
2023-05-08T06:47:45.245Z,99670.44
2023-05-08T06:50:12.295Z,99672.16
2023-05-08T06:52:39.395Z,99677.96
2023-05-08T06:55:06.876Z,99680.85
2023-05-08T06:57:34.051Z,99674.67
2023-05-08T07:00:00.977Z,99678.49
2023-05-08T07:02:28.149Z,99681.88
2023-05-08T07:04:55.168Z,99685.77
2023-05-08T07:07:22.312Z,99689.66
2023-05-08T07:09:49.318Z,99689.30
2023-05-08T07:12:17.319Z,99689.05
2023-05-08T07:14:44.437Z,99697.04
2023-05-08T07:17:11.380Z,99697.58
2023-05-08T07:19:39.169Z,99698.16
2023-05-08T07:22:06.808Z,99697.46
2023-05-08T07:24:34.225Z,99702.13
2023-05-08T07:27:01.897Z,99701.16
2023-05-08T07:29:29.383Z,99700.52
2023-05-08T07:31:57.097Z,99704.52
2023-05-08T07:34:24.467Z,99704.05
2023-05-08T07:36:51.347Z,99708.14
2023-05-08T07:39:18.371Z,99708.54
2023-05-08T07:41:48.421Z,99709.58
2023-05-08T07:44:16.700Z,99708.94
2023-05-08T07:46:44.101Z,99711.31
2023-05-08T07:49:11.920Z,99714.20
2023-05-08T07:51:39.892Z,99717.52
2023-05-08T07:54:07.110Z,99717.48
2023-05-08T07:56:34.053Z,99717.32
2023-05-08T07:59:01.021Z,99722.05
2023-05-08T08:01:28.502Z,99717.52
2023-05-08T08:03:55.510Z,99716.75
2023-05-08T08:06:23.137Z,99714.36
2023-05-08T08:08:50.085Z,99715.39
2023-05-08T08:11:17.271Z,99716.04
2023-05-08T08:13:44.160Z,99712.61
2023-05-08T08:16:11.574Z,99725.53
2023-05-08T08:18:38.672Z,99728.10
2023-05-08T08:21:07.339Z,99732.17
2023-05-08T08:23:35.053Z,99723.30
2023-05-08T08:26:02.290Z,99719.41
2023-05-08T08:28:29.906Z,99730.02
2023-05-08T08:30:57.407Z,99731.14
2023-05-08T08:33:25.119Z,99723.94
2023-05-08T08:35:52.204Z,99726.63
2023-05-08T08:38:19.572Z,99721.24
2023-05-08T08:40:46.932Z,99725.02
2023-05-08T08:43:14.237Z,99722.06
2023-05-08T08:45:41.737Z,99718.27
2023-05-08T08:48:14.484Z,99722.53
2023-05-08T08:50:46.589Z,99731.85
2023-05-08T08:53:21.910Z,99730.37
2023-05-08T08:55:52.854Z,99734.15
2023-05-08T08:58:35.026Z,99732.83
2023-05-08T09:01:04.544Z,99733.83
2023-05-08T09:03:33.281Z,99733.98
2023-05-08T09:06:03.982Z,99738.07
2023-05-08T09:08:32.380Z,99741.77
2023-05-08T09:11:02.532Z,99741.02
2023-05-08T09:13:30.694Z,99739.44
2023-05-08T09:16:01.565Z,99744.67
2023-05-08T09:18:28.718Z,99741.77
2023-05-08T09:20:56.881Z,99739.80
2023-05-08T09:23:24.115Z,99743.91
2023-05-08T09:25:51.041Z,99746.10
2023-05-08T09:28:22.550Z,99744.76
2023-05-08T09:30:53.223Z,99749.66
2023-05-08T09:33:22.321Z,99744.58
2023-05-08T09:35:50.210Z,99745.67
2023-05-08T09:38:42.320Z,99743.86
2023-05-08T09:41:11.671Z,99748.91
2023-05-08T09:43:39.068Z,99743.77
2023-05-08T09:46:22.972Z,99748.38
2023-05-08T09:48:51.266Z,99742.14
2023-05-08T09:51:18.735Z,99739.79
2023-05-08T09:53:46.062Z,99736.92
2023-05-08T09:56:13.266Z,99734.83
2023-05-08T09:58:42.976Z,99730.96
2023-05-08T10:01:29.878Z,99731.69
2023-05-08T10:03:57.024Z,99738.08
2023-05-08T10:06:24.214Z,99730.70
2023-05-08T10:09:10.644Z,99730.91
2023-05-08T10:11:39.260Z,99730.81
2023-05-08T10:14:07.013Z,99732.05
2023-05-08T10:16:42.592Z,99731.12
2023-05-08T10:19:15.339Z,99729.08
2023-05-08T10:21:48.557Z,99726.85
2023-05-08T10:24:21.349Z,99723.39
2023-05-08T10:27:07.448Z,99721.72
2023-05-08T10:29:46.507Z,99711.48
2023-05-08T10:32:19.511Z,99721.93
2023-05-08T10:34:53.288Z,99707.17
2023-05-08T10:37:20.658Z,99709.48
2023-05-08T10:39:49.279Z,99709.71
2023-05-08T10:42:17.338Z,99710.80
2023-05-08T10:44:45.091Z,99711.67
2023-05-08T10:47:28.573Z,99711.40
2023-05-08T10:50:19.416Z,99703.39
2023-05-08T10:53:34.574Z,99697.77
2023-05-08T10:56:02.070Z,99703.21
2023-05-08T10:58:30.031Z,99699.10
2023-05-08T11:01:08.061Z,99705.63
2023-05-08T11:03:44.774Z,99705.85
2023-05-08T11:06:13.174Z,99710.05
2023-05-08T11:08:52.037Z,99707.73
2023-05-08T11:11:27.273Z,99709.60
2023-05-08T11:13:56.453Z,99708.81
2023-05-08T11:16:56.879Z,99709.77
2023-05-08T11:19:25.366Z,99705.77
2023-05-08T11:22:17.531Z,99697.59
2023-05-08T11:24:56.931Z,99700.13
2023-05-08T11:27:37.366Z,99695.44
2023-05-08T11:30:44.474Z,99691.43
2023-05-08T11:33:11.589Z,99687.70
2023-05-08T11:36:16.742Z,99682.30
2023-05-08T11:38:44.580Z,99688.33
2023-05-08T11:41:22.392Z,99687.17
2023-05-08T11:44:23.028Z,99689.59
2023-05-08T11:46:55.643Z,99684.07
2023-05-08T11:49:28.148Z,99680.86
2023-05-08T11:51:59.611Z,99680.38
2023-05-08T11:54:30.753Z,99686.66
2023-05-08T11:56:59.897Z,99688.69
2023-05-08T11:59:27.813Z,99687.81
2023-05-08T12:04:24.893Z,99684.77
2023-05-08T12:06:59.021Z,99684.91
2023-05-08T12:09:26.424Z,99687.55
2023-05-08T12:11:58.195Z,99689.00
2023-05-08T12:14:25.270Z,99684.75
2023-05-08T12:16:52.677Z,99678.78
2023-05-08T12:19:20.008Z,99678.91
2023-05-08T12:21:50.344Z,99673.25
2023-05-08T12:24:26.252Z,99681.45
2023-05-08T12:26:56.759Z,99685.55
2023-05-08T12:29:24.323Z,99683.77
2023-05-08T12:31:53.206Z,99682.55
2023-05-08T12:34:20.626Z,99681.63
2023-05-08T12:36:48.022Z,99677.38
2023-05-08T12:39:19.383Z,99684.29
2023-05-08T12:41:53.224Z,99678.08
2023-05-08T12:44:25.014Z,99679.23
2023-05-08T12:46:53.922Z,99680.73
2023-05-08T12:49:31.685Z,99685.34
2023-05-08T12:52:09.991Z,99685.98
2023-05-08T12:54:41.858Z,99684.58
2023-05-08T12:57:17.336Z,99681.13
2023-05-08T12:59:46.502Z,99685.71
2023-05-08T13:02:24.319Z,99686.45
2023-05-08T13:04:58.248Z,99679.09
2023-05-08T13:07:25.470Z,99679.11
2023-05-08T13:10:05.024Z,99677.13
2023-05-08T13:12:32.472Z,99671.04
2023-05-08T13:14:59.590Z,99671.37
2023-05-08T13:17:27.118Z,99674.67
2023-05-08T13:19:54.078Z,99680.84
2023-05-08T13:22:23.562Z,99677.00
2023-05-08T13:24:50.488Z,99673.39
2023-05-08T13:27:17.521Z,99668.71
2023-05-08T13:29:44.503Z,99671.98
2023-05-08T13:32:11.574Z,99662.23
2023-05-08T13:34:44.321Z,99663.67
2023-05-08T13:37:16.720Z,99662.02
2023-05-08T13:39:43.938Z,99659.98
2023-05-08T13:42:11.349Z,99660.89
2023-05-08T13:44:38.720Z,99669.43
2023-05-08T13:47:05.698Z,99663.95
2023-05-08T13:49:32.799Z,99659.47
2023-05-08T13:51:59.829Z,99664.17
2023-05-08T13:54:27.294Z,99662.91
2023-05-08T13:56:54.718Z,99656.95
2023-05-08T13:59:21.748Z,99653.42
2023-05-08T14:01:48.969Z,99648.80
2023-05-08T14:04:15.930Z,99643.86
2023-05-08T14:06:43.029Z,99643.39
2023-05-08T14:09:30.755Z,99645.08
2023-05-08T14:11:57.962Z,99642.95
2023-05-08T14:14:24.894Z,99641.62
2023-05-08T14:16:52.319Z,99636.00
2023-05-08T14:19:19.365Z,99638.02
2023-05-08T14:21:46.248Z,99640.13
2023-05-08T14:24:13.430Z,99639.82
2023-05-08T14:26:42.254Z,99637.84
2023-05-08T14:29:09.760Z,99642.02
2023-05-08T14:31:36.707Z,99648.23
2023-05-08T14:34:03.827Z,99647.92
2023-05-08T14:36:31.785Z,99648.55
2023-05-08T14:38:58.871Z,99653.42
2023-05-08T14:41:30.186Z,99649.68
2023-05-08T14:43:57.596Z,99648.98
2023-05-08T14:46:25.268Z,99657.33
2023-05-08T14:48:52.977Z,99651.38
2023-05-08T14:51:21.220Z,99648.97
2023-05-08T14:53:48.473Z,99647.27
2023-05-08T14:56:15.716Z,99651.45
2023-05-08T14:58:43.091Z,99660.94
2023-05-08T15:01:10.031Z,99661.79
2023-05-08T15:03:37.183Z,99665.70
2023-05-08T15:06:05.450Z,99657.67
2023-05-08T15:08:32.397Z,99659.26
2023-05-08T15:10:59.997Z,99649.21
2023-05-08T15:13:27.666Z,99644.98
2023-05-08T15:15:55.020Z,99643.78
2023-05-08T15:18:25.496Z,99639.36
2023-05-08T15:20:52.647Z,99644.00
2023-05-08T15:23:20.718Z,99644.38
2023-05-08T15:25:47.911Z,99649.10
2023-05-08T15:28:14.951Z,99650.84
2023-05-08T15:30:42.306Z,99650.02
2023-05-08T15:33:09.447Z,99653.84
2023-05-08T15:35:36.755Z,99653.77
2023-05-08T15:38:06.396Z,99649.69
2023-05-08T15:40:34.552Z,99651.77
2023-05-08T15:43:01.591Z,99648.55
2023-05-08T15:45:28.652Z,99646.11
2023-05-08T15:47:55.813Z,99644.48
2023-05-08T15:50:23.847Z,99643.61
2023-05-08T15:52:51.037Z,99639.59
2023-05-08T15:55:18.328Z,99639.80
2023-05-08T15:57:45.917Z,99639.95
2023-05-08T16:00:13.968Z,99642.92
2023-05-08T16:02:41.114Z,99635.86
2023-05-08T16:05:08.473Z,99644.10
2023-05-08T16:07:35.710Z,99637.63
2023-05-08T16:10:03.427Z,99638.02
2023-05-08T16:12:31.641Z,99627.35
2023-05-08T16:14:59.130Z,99635.51
2023-05-08T16:17:26.185Z,99639.09
2023-05-08T16:19:53.392Z,99637.75
2023-05-08T16:22:20.233Z,99637.25
2023-05-08T16:24:47.271Z,99634.77
2023-05-08T16:27:14.475Z,99630.68
2023-05-08T16:29:41.463Z,99627.05
2023-05-08T16:32:08.609Z,99622.40
2023-05-08T16:34:36.712Z,99619.70
2023-05-08T16:37:03.718Z,99625.98
2023-05-08T16:39:31.116Z,99625.95
2023-05-08T16:41:58.476Z,99630.36
2023-05-08T16:44:25.789Z,99635.83
2023-05-08T16:46:52.851Z,99635.52
2023-05-08T16:49:19.874Z,99635.98
2023-05-08T16:51:46.796Z,99640.99
2023-05-08T16:54:13.835Z,99639.89
2023-05-08T16:56:40.962Z,99637.98
2023-05-08T16:59:08.323Z,99642.09
2023-05-08T17:01:35.276Z,99639.80
2023-05-08T17:04:02.256Z,99638.66
2023-05-08T17:06:29.203Z,99642.62
2023-05-08T17:08:56.242Z,99640.10
2023-05-08T17:11:23.428Z,99643.05
2023-05-08T17:13:50.793Z,99645.56
2023-05-08T17:16:20.373Z,99641.10
2023-05-08T17:18:47.837Z,99641.27
2023-05-08T17:21:15.112Z,99637.52
2023-05-08T17:23:41.929Z,99637.81
2023-05-08T17:26:09.377Z,99639.20
2023-05-08T17:28:36.385Z,99639.70
2023-05-08T17:31:03.997Z,99638.30
2023-05-08T17:33:31.291Z,99635.15
2023-05-08T17:35:58.222Z,99631.34
2023-05-08T17:38:25.389Z,99627.54
2023-05-08T17:40:55.637Z,99622.04
2023-05-08T17:43:22.759Z,99624.53
2023-05-08T17:45:49.752Z,99626.45
2023-05-08T17:48:23.432Z,99628.05
2023-05-08T17:51:04.831Z,99630.00
2023-05-08T17:53:36.021Z,99633.67
2023-05-08T17:56:08.613Z,99632.16
2023-05-08T17:58:51.606Z,99632.05
2023-05-08T18:01:30.004Z,99630.56
2023-05-08T18:04:14.017Z,99631.52
2023-05-08T18:06:41.064Z,99631.46
2023-05-08T18:09:09.382Z,99635.80
2023-05-08T18:11:36.941Z,99636.03
2023-05-08T18:14:03.953Z,99637.45
2023-05-08T18:16:31.368Z,99644.76
2023-05-08T18:18:58.503Z,99643.45
2023-05-08T18:21:25.856Z,99641.88
2023-05-08T18:23:52.788Z,99639.74
2023-05-08T18:26:19.728Z,99640.30
2023-05-08T18:28:46.585Z,99643.46
2023-05-08T18:31:13.946Z,99640.95
2023-05-08T18:33:41.035Z,99647.17
2023-05-08T18:36:08.011Z,99647.45
2023-05-08T18:38:35.873Z,99650.73
2023-05-08T18:41:06.472Z,99654.42
2023-05-08T18:43:34.176Z,99656.60
2023-05-08T18:46:08.785Z,99657.08
2023-05-08T18:48:36.251Z,99655.72
2023-05-08T18:51:03.385Z,99652.42
2023-05-08T18:53:33.514Z,99653.46
2023-05-08T18:56:04.049Z,99653.82
2023-05-08T18:58:31.600Z,99655.64
2023-05-08T19:00:59.368Z,99656.52
2023-05-08T19:03:26.589Z,99655.25
2023-05-08T19:05:57.143Z,99657.42
2023-05-08T19:08:24.541Z,99655.77
2023-05-08T19:10:53.444Z,99651.27
2023-05-08T19:13:20.569Z,99657.42
2023-05-08T19:15:47.885Z,99661.06
2023-05-08T19:18:15.272Z,99662.27
2023-05-08T19:20:42.265Z,99662.25
2023-05-08T19:23:09.277Z,99659.98
2023-05-08T19:25:36.369Z,99657.00
2023-05-08T19:28:04.421Z,99657.73
2023-05-08T19:30:31.526Z,99658.71
2023-05-08T19:32:58.878Z,99655.21
2023-05-08T19:35:26.311Z,99653.21
2023-05-08T19:37:53.640Z,99657.61
2023-05-08T19:40:20.659Z,99655.30
2023-05-08T19:42:47.998Z,99651.02
2023-05-08T19:45:16.558Z,99649.73
2023-05-08T19:47:48.563Z,99646.55
2023-05-08T19:50:18.481Z,99648.86
2023-05-08T19:52:49.877Z,99647.31
2023-05-08T19:55:18.082Z,99646.02
2023-05-08T19:57:45.535Z,99645.77
2023-05-08T20:00:13.205Z,99639.58
2023-05-08T20:02:40.737Z,99639.11
2023-05-08T20:07:38.393Z,99638.02
2023-05-08T20:10:06.116Z,99629.98
2023-05-08T20:12:33.172Z,99631.18
2023-05-08T20:15:00.150Z,99633.48
2023-05-08T20:17:27.490Z,99631.69
2023-05-08T20:19:54.629Z,99627.48
2023-05-08T20:22:21.679Z,99629.52
2023-05-08T20:24:48.595Z,99625.83
2023-05-08T20:27:15.675Z,99622.41
2023-05-08T20:29:42.998Z,99625.77
2023-05-08T20:32:14.997Z,99619.73
2023-05-08T20:34:44.323Z,99619.20
2023-05-08T20:37:11.358Z,99617.58
2023-05-08T20:39:38.719Z,99614.30
2023-05-08T20:42:06.154Z,99618.63
2023-05-08T20:44:33.149Z,99616.06
2023-05-08T20:47:00.150Z,99613.34
2023-05-08T20:49:27.274Z,99616.88
2023-05-08T20:51:54.627Z,99616.05
2023-05-08T20:54:21.996Z,99612.05
2023-05-08T20:56:48.951Z,99613.51
2023-05-08T20:59:17.148Z,99613.30
2023-05-08T21:01:44.029Z,99608.15
2023-05-08T21:04:11.309Z,99609.27
2023-05-08T21:06:38.571Z,99609.23
2023-05-08T21:09:07.063Z,99608.05
2023-05-08T21:11:34.873Z,99606.95
2023-05-08T21:14:02.193Z,99609.48
2023-05-08T21:16:29.419Z,99607.05
2023-05-08T21:18:58.355Z,99607.60
2023-05-08T21:21:25.875Z,99609.67
2023-05-08T21:23:53.594Z,99602.33
2023-05-08T21:26:23.937Z,99600.89
2023-05-08T21:28:52.764Z,99603.08
2023-05-08T21:31:20.242Z,99598.83
2023-05-08T21:33:47.885Z,99597.83
2023-05-08T21:36:14.955Z,99594.07
2023-05-08T21:38:42.087Z,99592.17
2023-05-08T21:41:09.527Z,99595.08
2023-05-08T21:43:37.172Z,99591.94
2023-05-08T21:46:05.765Z,99592.99
2023-05-08T21:48:33.840Z,99595.90
2023-05-08T21:51:01.807Z,99595.73
2023-05-08T21:53:29.463Z,99596.27
2023-05-08T21:55:56.551Z,99596.29
2023-05-08T21:58:23.645Z,99595.20
2023-05-08T22:00:50.991Z,99598.07
2023-05-08T22:03:18.285Z,99591.89
2023-05-08T22:05:45.406Z,99590.06
2023-05-08T22:08:12.256Z,99590.30
2023-05-08T22:10:39.497Z,99586.67
2023-05-08T22:13:07.767Z,99584.30
2023-05-08T22:15:35.282Z,99581.34
2023-05-08T22:18:03.082Z,99577.79
2023-05-08T22:20:30.390Z,99581.52
2023-05-08T22:22:57.512Z,99579.17
2023-05-08T22:25:26.097Z,99575.20
2023-05-08T22:27:53.367Z,99579.58
2023-05-08T22:30:20.723Z,99578.55
2023-05-08T22:32:58.153Z,99578.58
2023-05-08T22:35:27.808Z,99574.77
2023-05-08T22:37:57.485Z,99571.83
2023-05-08T22:40:25.128Z,99570.36
2023-05-08T22:42:53.765Z,99569.65
2023-05-08T22:45:21.597Z,99562.39
2023-05-08T22:47:48.548Z,99559.50
2023-05-08T22:50:17.759Z,99558.09
2023-05-08T22:52:45.431Z,99557.25
2023-05-08T22:55:13.083Z,99557.45
2023-05-08T22:57:40.272Z,99562.05
2023-05-08T23:00:09.051Z,99563.45
2023-05-08T23:02:36.574Z,99560.06
2023-05-08T23:05:04.064Z,99554.05
2023-05-08T23:07:31.355Z,99557.98
2023-05-08T23:09:58.389Z,99553.70
2023-05-08T23:12:25.668Z,99558.09
2023-05-08T23:15:01.216Z,99556.05
2023-05-08T23:17:30.873Z,99557.50
2023-05-08T23:20:01.641Z,99556.38
2023-05-08T23:22:33.716Z,99555.30
2023-05-08T23:25:10.585Z,99550.77
2023-05-08T23:27:42.049Z,99548.59
2023-05-08T23:30:17.247Z,99546.09
2023-05-08T23:32:49.985Z,99548.02
2023-05-08T23:35:17.189Z,99545.14
2023-05-08T23:37:44.223Z,99540.52
2023-05-08T23:40:11.964Z,99539.20
2023-05-08T23:42:40.079Z,99534.44
2023-05-08T23:45:08.212Z,99531.92
2023-05-08T23:47:35.520Z,99533.75
2023-05-08T23:50:02.814Z,99532.55
2023-05-08T23:52:30.053Z,99531.27
2023-05-08T23:54:56.888Z,99526.61
2023-05-08T23:57:24.373Z,99524.20
2023-05-08T23:59:51.540Z,99523.14
